Time;durP1;ratioP1;P1;durP2;ratioP2;P2;SDS_P1;SDS_P2;PMS_P1;PMS_P2;Temp;Humidity;BMP_temperature;BMP_pressure;BME280_temperature;BME280_humidity;BME280_pressure;Samples;Min_cycle;Max_cycle;Signal;HPM_P1;HPM_P2
2022/09/07 00:00:55;;;;;;;2.35;1.40;;;23.10;78.50;;;;;;5073416;28;20495;-85
2022/09/07 00:03:21;;;;;;;4.10;1.40;;;23.10;78.60;;;;;;5073823;28;20116;-85
2022/09/07 00:05:49;;;;;;;2.28;1.40;;;23.10;78.70;;;;;;5073736;28;20019;-85
2022/09/07 00:08:17;;;;;;;3.83;1.33;;;22.90;79.80;;;;;;5073635;28;20029;-85
2022/09/07 00:10:57;;;;;;;2.35;1.10;;;22.80;79.30;;;;;;5073217;28;20020;-86
2022/09/07 00:13:25;;;;;;;3.13;1.38;;;23.00;78.80;;;;;;5073350;28;20032;-85
2022/09/07 00:15:51;;;;;;;3.88;1.02;;;23.10;78.40;;;;;;5073278;28;20043;-85
2022/09/07 00:18:17;;;;;;;1.92;1.02;;;23.10;78.00;;;;;;5073432;28;20024;-85
2022/09/07 00:20:43;;;;;;;1.70;0.80;;;23.20;77.80;;;;;;5073323;28;20115;-86
2022/09/07 00:23:09;;;;;;;2.53;1.13;;;23.40;77.40;;;;;;5073378;28;20025;-85
2022/09/07 00:25:38;;;;;;;2.10;0.93;;;23.40;77.10;;;;;;5072896;28;20032;-85
2022/09/07 00:28:05;;;;;;;2.33;0.80;;;23.30;77.50;;;;;;5073238;28;20112;-86
2022/09/07 00:30:32;;;;;;;1.27;0.73;;;23.20;78.00;;;;;;5073290;28;20036;-85
2022/09/07 00:32:57;;;;;;;4.38;1.38;;;23.00;78.90;;;;;;5073250;28;20078;-86
2022/09/07 00:35:23;;;;;;;4.57;1.13;;;22.90;79.00;;;;;;5073022;28;20021;-86
2022/09/07 00:37:49;;;;;;;3.10;0.77;;;22.90;79.20;;;;;;5072882;28;20029;-86
2022/09/07 00:40:14;;;;;;;1.70;0.73;;;22.80;79.30;;;;;;5073281;28;20024;-85
2022/09/07 00:42:40;;;;;;;3.28;1.10;;;22.40;80.40;;;;;;5073046;28;20071;-86
2022/09/07 00:45:17;;;;;;;1.80;0.88;;;22.40;80.90;;;;;;5073279;28;20161;-86
2022/09/07 00:48:10;;;;;;;1.50;0.60;;;22.30;81.40;;;;;;5073134;28;20028;-85
2022/09/07 00:51:04;;;;;;;1.85;0.70;;;22.30;80.60;;;;;;5072893;28;20475;-86
2022/09/07 00:53:35;;;;;;;1.90;0.60;;;22.50;80.00;;;;;;5071946;28;20044;-86
2022/09/07 00:56:01;;;;;;;2.08;0.50;;;22.70;79.30;;;;;;5077066;28;20056;-86
2022/09/07 00:58:29;;;;;;;1.58;0.60;;;23.00;78.50;;;;;;5077213;28;20473;-86
2022/09/07 01:00:55;;;;;;;1.60;0.50;;;23.20;77.50;;;;;;5076861;28;20376;-85
2022/09/07 01:03:26;;;;;;;1.17;0.40;;;23.50;77.10;;;;;;5076856;28;20024;-85
2022/09/07 01:06:10;;;;;;;1.20;0.40;;;23.50;76.50;;;;;;5076803;28;20484;-85
2022/09/07 01:08:37;;;;;;;1.20;0.45;;;23.50;76.60;;;;;;5076724;28;20464;-85
2022/09/07 01:11:03;;;;;;;1.65;0.50;;;23.20;76.90;;;;;;5076658;28;20037;-86
2022/09/07 01:13:29;;;;;;;1.27;0.40;;;23.20;76.90;;;;;;5076283;28;20032;-86
2022/09/07 01:16:10;;;;;;;1.25;0.30;;;23.20;77.10;;;;;;5076562;28;20020;-86
2022/09/07 01:18:57;;;;;;;1.83;0.50;;;23.30;76.60;;;;;;5076803;28;20104;-86
2022/09/07 01:21:49;;;;;;;2.45;0.60;;;23.50;76.10;;;;;;5076498;28;20507;-86
2022/09/07 01:24:30;;;;;;;;;;;23.60;75.50;;;;;;5076625;28;20020;-86
2022/09/07 01:27:08;;;;;;;0.90;0.40;;;23.60;75.60;;;;;;5076251;28;19926;-86
2022/09/07 01:30:04;;;;;;;1.42;0.40;;;23.60;75.60;;;;;;5076652;28;20073;-86
2022/09/07 01:32:30;;;;;;;0.98;0.30;;;23.70;75.40;;;;;;5076361;28;20116;-86
2022/09/07 01:34:56;;;;;;;1.10;0.30;;;23.70;75.80;;;;;;5076410;28;20051;-86
2022/09/07 01:37:41;;;;;;;0.55;0.20;;;23.70;75.00;;;;;;5076042;28;20524;-86
2022/09/07 01:40:34;;;;;;;2.22;0.45;;;23.80;74.70;;;;;;5076499;28;20055;-85
2022/09/07 01:43:05;;;;;;;2.42;0.30;;;23.90;74.70;;;;;;5067708;28;20044;-85
2022/09/07 01:45:35;;;;;;;1.58;0.45;;;23.90;75.10;;;;;;5076081;28;20021;-85
2022/09/07 01:48:06;;;;;;;1.35;0.30;;;23.80;74.60;;;;;;5076332;28;20033;-85
2022/09/07 01:50:44;;;;;;;1.55;0.43;;;23.90;74.60;;;;;;5075948;28;20028;-86
2022/09/07 01:53:33;;;;;;;0.95;0.30;;;23.90;74.40;;;;;;5076274;28;20067;-86
2022/09/07 01:56:11;;;;;;;0.75;0.20;;;23.90;74.30;;;;;;5075894;28;20025;-85
2022/09/07 01:59:01;;;;;;;0.95;0.40;;;23.90;74.20;;;;;;5075893;28;20052;-86
2022/09/07 02:01:31;;;;;;;1.05;0.30;;;24.00;74.00;;;;;;5075810;28;20111;-86
2022/09/07 02:04:03;;;;;;;1.17;0.25;;;24.10;73.60;;;;;;5075953;28;20041;-86
2022/09/07 02:06:40;;;;;;;1.33;0.27;;;24.20;73.20;;;;;;5075349;28;20025;-86
2022/09/07 02:09:12;;;;;;;0.57;0.20;;;24.20;72.70;;;;;;5075788;28;20024;-86
2022/09/07 02:11:44;;;;;;;1.05;0.28;;;24.40;72.50;;;;;;5075420;28;20127;-86
2022/09/07 02:14:28;;;;;;;0.73;0.32;;;24.40;72.10;;;;;;5076070;28;20071;-86
2022/09/07 02:17:16;;;;;;;1.45;0.28;;;24.40;71.80;;;;;;5075554;28;20035;-86
2022/09/07 02:19:53;;;;;;;1.55;0.30;;;24.50;71.90;;;;;;5075627;28;20025;-86
2022/09/07 02:22:25;;;;;;;1.90;0.75;;;24.40;72.40;;;;;;5075347;28;20031;-86
2022/09/07 02:24:55;;;;;;;1.77;0.20;;;24.30;72.60;;;;;;5075405;28;20037;-86
2022/09/07 02:27:25;;;;;;;1.13;0.20;;;24.20;72.60;;;;;;5075151;28;20049;-85
2022/09/07 02:29:52;;;;;;;1.10;0.30;;;24.10;72.90;;;;;;5075491;28;20044;-85
2022/09/07 02:32:18;;;;;;;2.20;0.20;;;24.00;73.20;;;;;;5075417;28;20040;-85
2022/09/07 02:34:45;;;;;;;1.38;0.30;;;24.00;73.10;;;;;;5075105;28;20575;-85
2022/09/07 02:37:12;;;;;;;0.45;0.20;;;24.10;72.90;;;;;;5075055;28;20071;-86
2022/09/07 02:39:38;;;;;;;1.60;0.32;;;24.20;72.60;;;;;;5075280;28;20103;-85
2022/09/07 02:42:04;;;;;;;0.93;0.20;;;24.10;72.90;;;;;;5075195;28;20108;-86
2022/09/07 02:44:34;;;;;;;0.85;0.28;;;24.10;73.00;;;;;;5074848;28;20024;-86
2022/09/07 02:47:16;;;;;;;1.33;0.38;;;24.10;73.00;;;;;;5074886;28;20476;-86
2022/09/07 02:50:09;;;;;;;3.05;0.30;;;23.90;73.80;;;;;;5075373;28;20035;-85
2022/09/07 02:52:43;;;;;;;0.80;0.38;;;23.80;74.20;;;;;;5085218;28;20503;-86
2022/09/07 02:55:29;;;;;;;1.00;0.28;;;23.80;73.70;;;;;;5074790;28;20116;-86
2022/09/07 02:58:26;;;;;;;1.17;0.52;;;23.90;73.60;;;;;;5075070;28;20066;-86
2022/09/07 03:01:06;;;;;;;0.60;0.20;;;23.80;74.10;;;;;;5074933;28;20021;-86
2022/09/07 03:03:43;;;;;;;1.52;0.25;;;23.60;74.30;;;;;;5074503;28;20070;-86
2022/09/07 03:06:20;;;;;;;1.77;0.80;;;23.70;74.00;;;;;;5074790;28;20025;-86
2022/09/07 03:08:50;;;;;;;1.00;0.20;;;23.80;73.90;;;;;;5074540;28;20480;-86
2022/09/07 03:11:16;;;;;;;1.58;0.20;;;23.90;73.60;;;;;;5074300;28;20439;-86
2022/09/07 03:13:42;;;;;;;0.85;0.22;;;24.00;73.30;;;;;;5074472;28;20395;-85
2022/09/07 03:16:12;;;;;;;1.25;0.30;;;24.10;73.00;;;;;;5074593;28;20024;-85
2022/09/07 03:18:38;;;;;;;1.25;0.20;;;24.20;72.60;;;;;;5073350;28;20028;-85
2022/09/07 03:21:04;;;;;;;0.32;0.20;;;24.20;72.20;;;;;;5074572;28;20414;-86
2022/09/07 03:23:30;;;;;;;0.60;0.20;;;24.40;71.90;;;;;;5074254;28;20028;-86
2022/09/07 03:25:55;;;;;;;0.50;0.20;;;24.40;71.60;;;;;;5074132;28;20388;-87
2022/09/07 03:28:21;;;;;;;0.93;0.20;;;24.40;71.70;;;;;;5074019;28;20069;-86
2022/09/07 03:30:47;;;;;;;0.47;0.10;;;24.40;71.50;;;;;;5074037;28;20039;-86
2022/09/07 03:33:16;;;;;;;0.50;0.10;;;24.40;71.40;;;;;;5074407;28;20032;-86
2022/09/07 03:35:42;;;;;;;0.70;0.20;;;24.60;71.30;;;;;;5074256;28;20025;-86
2022/09/07 03:38:08;;;;;;;0.70;0.30;;;24.50;71.20;;;;;;5073753;28;20467;-86
2022/09/07 03:40:33;;;;;;;0.60;0.30;;;24.60;71.00;;;;;;5074175;28;20096;-85
2022/09/07 03:42:59;;;;;;;1.00;0.40;;;24.60;71.00;;;;;;5073873;28;20383;-85
2022/09/07 03:45:25;;;;;;;0.70;0.30;;;24.50;71.40;;;;;;5073656;28;20020;-86
2022/09/07 03:47:50;;;;;;;0.70;0.20;;;24.50;71.40;;;;;;5073886;28;20059;-86
2022/09/07 03:50:16;;;;;;;1.20;0.20;;;24.50;71.40;;;;;;5074247;28;20104;-85
2022/09/07 03:52:41;;;;;;;0.70;0.13;;;24.50;71.50;;;;;;5079680;28;20138;-84
2022/09/07 03:55:07;;;;;;;1.25;0.32;;;24.40;71.60;;;;;;5074727;28;20047;-86
2022/09/07 03:57:33;;;;;;;1.20;0.20;;;24.40;71.40;;;;;;5073482;28;20025;-86
2022/09/07 04:00:00;;;;;;;1.10;0.20;;;24.50;71.30;;;;;;5073411;28;20043;-86
2022/09/07 04:02:25;;;;;;;0.63;0.20;;;24.60;71.40;;;;;;5073682;28;20059;-86
2022/09/07 04:04:51;;;;;;;0.60;0.20;;;24.60;71.10;;;;;;5073420;28;20025;-86
2022/09/07 04:07:17;;;;;;;2.15;0.20;;;24.60;70.70;;;;;;5073499;28;20027;-86
2022/09/07 04:09:42;;;;;;;1.30;0.30;;;24.70;70.60;;;;;;5073601;28;20021;-86
2022/09/07 04:12:08;;;;;;;0.68;0.25;;;24.70;70.40;;;;;;5073482;28;20036;-86
2022/09/07 04:14:33;;;;;;;0.47;0.20;;;24.80;70.50;;;;;;5073327;28;20399;-86
2022/09/07 04:16:59;;;;;;;0.38;0.20;;;24.80;70.80;;;;;;5073500;28;20460;-86
2022/09/07 04:19:25;;;;;;;0.82;0.20;;;24.80;70.70;;;;;;5073518;28;20480;-86
2022/09/07 04:21:50;;;;;;;1.08;0.38;;;24.80;70.60;;;;;;5073550;28;20029;-86
2022/09/07 04:24:17;;;;;;;0.93;0.20;;;24.80;70.50;;;;;;5073560;28;20021;-86
2022/09/07 04:26:44;;;;;;;1.13;0.40;;;24.80;70.50;;;;;;5073316;28;20430;-87
2022/09/07 04:29:10;;;;;;;0.70;0.25;;;24.80;70.60;;;;;;5071501;28;20017;-85
2022/09/07 04:31:36;;;;;;;0.30;0.10;;;24.80;70.70;;;;;;5073094;28;20041;-85
2022/09/07 04:34:03;;;;;;;1.23;0.20;;;24.80;70.70;;;;;;5073122;28;20046;-85
2022/09/07 04:36:29;;;;;;;0.38;0.20;;;24.80;70.80;;;;;;5073319;28;20059;-86
2022/09/07 04:39:00;;;;;;;0.75;0.30;;;24.80;70.80;;;;;;5072913;28;20051;-86
2022/09/07 04:41:27;;;;;;;0.80;0.30;;;24.80;70.80;;;;;;5073206;28;20040;-86
2022/09/07 04:43:58;;;;;;;0.82;0.20;;;24.80;70.90;;;;;;5072951;28;20025;-86
2022/09/07 04:46:26;;;;;;;0.98;0.30;;;24.70;71.00;;;;;;5073315;28;20024;-86
2022/09/07 04:48:54;;;;;;;1.83;0.40;;;24.70;71.10;;;;;;5072745;28;20025;-86
2022/09/07 04:51:22;;;;;;;0.98;0.30;;;24.70;71.40;;;;;;5072904;28;20047;-86
2022/09/07 04:53:52;;;;;;;1.38;0.60;;;24.70;71.30;;;;;;5073114;28;20025;-86
2022/09/07 04:56:19;;;;;;;1.13;0.30;;;24.70;71.10;;;;;;5080977;28;20035;-82
2022/09/07 04:58:46;;;;;;;0.88;0.50;;;24.70;71.20;;;;;;5074927;28;20020;-86
2022/09/07 05:01:14;;;;;;;1.63;0.30;;;24.70;71.20;;;;;;5073358;28;20020;-85
2022/09/07 05:03:40;;;;;;;1.35;0.60;;;24.70;71.30;;;;;;5072681;28;20025;-85
2022/09/07 05:06:07;;;;;;;2.45;0.50;;;24.60;71.30;;;;;;5073070;28;20078;-86
2022/09/07 05:08:38;;;;;;;0.80;0.40;;;24.70;71.40;;;;;;5072547;28;20480;-86
2022/09/07 05:11:04;;;;;;;0.90;0.40;;;24.70;71.90;;;;;;5072915;28;20036;-85
2022/09/07 05:13:30;;;;;;;1.45;0.40;;;24.60;71.30;;;;;;5072676;28;20032;-86
2022/09/07 05:15:57;;;;;;;2.25;0.70;;;24.60;71.20;;;;;;5072742;28;20028;-86
2022/09/07 05:18:23;;;;;;;2.13;0.65;;;24.70;71.30;;;;;;5072820;28;20029;-86
2022/09/07 05:20:48;;;;;;;1.00;0.55;;;24.70;71.40;;;;;;5072566;28;20028;-85
2022/09/07 05:23:14;;;;;;;2.05;1.10;;;24.60;71.40;;;;;;5072755;28;20032;-85
2022/09/07 05:25:45;;;;;;;1.60;1.10;;;24.60;71.50;;;;;;5072466;28;20098;-84
2022/09/07 05:28:11;;;;;;;1.00;0.70;;;24.60;72.10;;;;;;5072914;28;20039;-86
2022/09/07 05:30:38;;;;;;;1.65;0.80;;;24.50;72.10;;;;;;5072893;28;20100;-86
2022/09/07 05:33:04;;;;;;;1.45;0.65;;;24.50;72.10;;;;;;5072790;28;20387;-86
2022/09/07 05:35:30;;;;;;;4.03;1.30;;;24.50;72.00;;;;;;5072202;28;20027;-85
2022/09/07 05:37:55;;;;;;;2.63;0.80;;;24.50;72.00;;;;;;5072862;28;20032;-86
2022/09/07 05:40:21;;;;;;;1.40;0.95;;;24.50;71.90;;;;;;5073072;28;20460;-85
2022/09/07 05:42:47;;;;;;;2.28;1.73;;;24.60;71.90;;;;;;5076136;28;20020;-86
2022/09/07 05:45:13;;;;;;;2.22;1.17;;;24.50;72.00;;;;;;5076361;28;20029;-85
2022/09/07 05:47:39;;;;;;;2.13;1.92;;;24.50;72.60;;;;;;5076053;28;20020;-86
2022/09/07 05:50:06;;;;;;;5.43;2.45;;;24.40;73.30;;;;;;5075832;28;20040;-76
2022/09/07 05:52:31;;;;;;;5.90;4.28;;;24.40;73.90;;;;;;5067892;28;20098;-76
2022/09/07 05:54:57;;;;;;;6.28;4.47;;;24.30;75.00;;;;;;5061809;28;20017;-77
2022/09/07 05:57:23;;;;;;;6.72;5.05;;;24.10;75.40;;;;;;5055005;28;20060;-76
2022/09/07 05:59:48;;;;;;;6.78;4.95;;;23.90;76.10;;;;;;5064933;28;20024;-78
2022/09/07 06:02:14;;;;;;;5.38;4.07;;;23.70;76.50;;;;;;5054711;28;20067;-77
2022/09/07 06:04:41;;;;;;;7.20;4.72;;;23.60;77.20;;;;;;5053851;28;20195;-77
2022/09/07 06:07:09;;;;;;;5.45;4.80;;;23.50;78.30;;;;;;5067080;28;20064;-78
2022/09/07 06:09:35;;;;;;;5.97;5.38;;;23.40;78.70;;;;;;5055867;28;20413;-78
2022/09/07 06:12:04;;;;;;;4.93;4.45;;;23.20;78.80;;;;;;5055166;28;20088;-79
2022/09/07 06:14:30;;;;;;;7.13;4.20;;;23.00;79.50;;;;;;5054785;28;20029;-76
2022/09/07 06:16:55;;;;;;;4.25;2.65;;;23.00;80.10;;;;;;5053660;28;20174;-79
2022/09/07 06:19:21;;;;;;;2.95;1.90;;;23.10;80.20;;;;;;5053469;28;20028;-77
2022/09/07 06:21:46;;;;;;;3.65;2.10;;;23.20;79.90;;;;;;5054394;28;20372;-77
2022/09/07 06:24:12;;;;;;;3.15;1.45;;;23.40;79.60;;;;;;5055299;28;20018;-77
2022/09/07 06:26:38;;;;;;;2.97;1.70;;;23.50;79.00;;;;;;5054933;28;20451;-77
2022/09/07 06:29:03;;;;;;;2.65;1.80;;;23.70;78.50;;;;;;5055481;28;20031;-80
2022/09/07 06:31:29;;;;;;;3.53;2.00;;;23.80;77.80;;;;;;5054963;28;20481;-80
2022/09/07 06:33:55;;;;;;;4.68;2.35;;;24.00;77.40;;;;;;5053228;28;20017;-80
2022/09/07 06:36:23;;;;;;;2.90;2.38;;;24.10;76.90;;;;;;5058460;28;20036;-79
2022/09/07 06:38:50;;;;;;;3.85;1.88;;;24.10;76.30;;;;;;5068947;28;20029;-79
2022/09/07 06:41:24;;;;;;;3.33;1.98;;;24.20;76.00;;;;;;5060606;28;20059;-80
2022/09/07 06:43:49;;;;;;;5.40;3.00;;;24.20;75.70;;;;;;5071768;28;21184;-80
2022/09/07 06:46:16;;;;;;;4.32;3.05;;;24.30;75.30;;;;;;5053938;28;20028;-79
2022/09/07 06:48:41;;;;;;;3.00;1.88;;;24.20;75.00;;;;;;5055686;28;20436;-80
2022/09/07 06:51:19;;;;;;;2.97;1.73;;;24.20;75.00;;;;;;5058688;28;20075;-78
2022/09/07 06:53:46;;;;;;;3.40;1.67;;;24.20;74.70;;;;;;5070850;28;20024;-77
2022/09/07 06:56:14;;;;;;;8.02;5.68;;;24.40;74.70;;;;;;5068068;28;20029;-76
2022/09/07 06:58:40;;;;;;;7.38;6.63;;;24.40;75.10;;;;;;5066117;28;20420;-76
2022/09/07 07:01:10;;;;;;;7.53;6.40;;;24.20;74.90;;;;;;5056371;28;20040;-78
2022/09/07 07:03:36;;;;;;;11.07;7.75;;;23.90;75.50;;;;;;5065201;28;20033;-76
2022/09/07 07:06:03;;;;;;;11.52;7.95;;;23.50;76.80;;;;;;5066962;28;20032;-74
2022/09/07 07:08:29;;;;;;;9.50;8.43;;;23.30;77.90;;;;;;5056049;28;20029;-76
2022/09/07 07:10:54;;;;;;;8.40;7.60;;;22.90;79.20;;;;;;5057471;28;20094;-77
2022/09/07 07:13:20;;;;;;;8.65;7.75;;;22.70;80.00;;;;;;5069812;28;20029;-76
2022/09/07 07:15:46;;;;;;;10.60;9.50;;;22.50;80.30;;;;;;5062260;28;20464;-77
2022/09/07 07:18:12;;;;;;;9.70;8.70;;;22.40;80.90;;;;;;5067669;28;20036;-78
2022/09/07 07:20:40;;;;;;;10.52;9.43;;;22.20;81.20;;;;;;5070927;28;20094;-78
2022/09/07 07:23:06;;;;;;;12.95;11.50;;;22.10;82.00;;;;;;5057356;28;20388;-78
2022/09/07 07:25:35;;;;;;;10.95;9.82;;;21.90;82.50;;;;;;5055562;28;20078;-77
2022/09/07 07:28:02;;;;;;;11.48;8.35;;;21.70;83.10;;;;;;5064889;28;20037;-77
2022/09/07 07:30:28;;;;;;;10.70;8.38;;;21.70;83.30;;;;;;5065314;28;20027;-77
2022/09/07 07:32:54;;;;;;;9.45;7.63;;;21.80;83.20;;;;;;5058705;28;20040;-77
2022/09/07 07:35:21;;;;;;;7.53;5.32;;;22.00;83.00;;;;;;5054004;28;20031;-77
2022/09/07 07:37:47;;;;;;;6.72;4.30;;;22.00;82.90;;;;;;5062417;28;20591;-77
2022/09/07 07:40:13;;;;;;;5.18;3.70;;;22.10;82.50;;;;;;5066662;28;20111;-75
2022/09/07 07:42:40;;;;;;;8.10;6.47;;;22.30;82.80;;;;;;5057811;28;20029;-77
2022/09/07 07:45:07;;;;;;;6.85;4.70;;;22.40;82.30;;;;;;5053233;28;20033;-78
2022/09/07 07:47:34;;;;;;;4.88;3.83;;;22.50;81.00;;;;;;5061481;28;20032;-77
2022/09/07 07:50:00;;;;;;;8.38;6.43;;;22.60;80.90;;;;;;5071523;28;20066;-78
2022/09/07 07:52:34;;;;;;;5.18;3.95;;;22.70;80.90;;;;;;5068118;28;20037;-78
2022/09/07 07:55:01;;;;;;;8.50;7.28;;;22.70;80.60;;;;;;5069018;28;20017;-77
2022/09/07 07:57:27;;;;;;;8.45;7.05;;;22.70;80.50;;;;;;5057429;28;20086;-77
2022/09/07 07:59:53;;;;;;;5.22;4.63;;;22.70;80.60;;;;;;5056528;28;20100;-77
2022/09/07 08:02:18;;;;;;;10.60;6.82;;;22.70;80.80;;;;;;5060267;28;20120;-77
2022/09/07 08:04:44;;;;;;;7.00;4.63;;;22.80;80.60;;;;;;5061533;28;20036;-76
2022/09/07 08:07:13;;;;;;;5.30;3.45;;;22.80;80.60;;;;;;5053586;28;20039;-76
2022/09/07 08:09:44;;;;;;;5.93;4.60;;;22.90;80.50;;;;;;5053270;28;20017;-77
2022/09/07 08:12:13;;;;;;;8.98;6.10;;;23.00;80.40;;;;;;5057906;28;20037;-76
2022/09/07 08:14:42;;;;;;;9.07;7.88;;;23.10;80.30;;;;;;5070271;28;20510;-76
2022/09/07 08:17:12;;;;;;;10.90;8.63;;;23.10;79.90;;;;;;5068341;28;20032;-77
2022/09/07 08:19:38;;;;;;;9.68;7.13;;;23.10;79.80;;;;;;5070518;28;20488;-78
2022/09/07 08:22:05;;;;;;;8.63;6.63;;;23.10;79.90;;;;;;5062098;28;20033;-77
2022/09/07 08:24:31;;;;;;;13.07;11.68;;;23.20;80.10;;;;;;5060073;28;20079;-77
2022/09/07 08:26:56;;;;;;;13.65;9.77;;;23.30;80.30;;;;;;5054062;28;20477;-77
2022/09/07 08:29:22;;;;;;;7.97;5.68;;;23.30;80.00;;;;;;5067382;28;20025;-76
2022/09/07 08:31:48;;;;;;;11.13;8.25;;;23.40;80.10;;;;;;5061876;28;20028;-80
2022/09/07 08:34:14;;;;;;;10.45;9.35;;;23.50;80.20;;;;;;5058041;28;20036;-79
2022/09/07 08:36:39;;;;;;;9.15;6.70;;;23.50;79.80;;;;;;5071062;28;20468;-78
2022/09/07 08:39:05;;;;;;;7.93;6.80;;;23.50;79.50;;;;;;5058173;28;20025;-78
2022/09/07 08:41:54;;;;;;;8.40;7.53;;;23.60;79.50;;;;;;5052861;28;20037;-78
2022/09/07 08:44:53;;;;;;;14.15;12.63;;;23.50;79.30;;;;;;5063559;28;20043;-78
2022/09/07 08:47:40;;;;;;;15.27;13.05;;;23.60;79.60;;;;;;5002572;28;20488;-79
2022/09/07 08:50:34;;;;;;;14.73;13.18;;;23.60;79.30;;;;;;5052411;28;20139;-75
2022/09/07 08:53:12;;;;;;;17.40;12.05;;;23.50;79.90;;;;;;5052769;28;20037;-75
2022/09/07 08:55:45;;;;;;;16.77;12.80;;;23.20;80.20;;;;;;5063554;28;20040;-76
2022/09/07 08:58:44;;;;;;;13.48;10.70;;;23.10;80.80;;;;;;5067653;28;20127;-75
2022/09/07 09:01:40;;;;;;;14.45;10.00;;;23.00;81.40;;;;;;5055718;28;20032;-75
2022/09/07 09:04:21;;;;;;;11.10;9.63;;;23.10;81.40;;;;;;5064492;28;20476;-75
2022/09/07 09:06:47;;;;;;;11.50;9.93;;;23.20;81.20;;;;;;5056215;28;20632;-76
2022/09/07 09:09:26;;;;;;;14.48;11.43;;;23.30;80.90;;;;;;5057252;28;20119;-75
2022/09/07 09:12:08;;;;;;;13.52;11.40;;;23.30;81.00;;;;;;5053315;28;20040;-75
2022/09/07 09:14:51;;;;;;;9.80;7.57;;;23.40;80.70;;;;;;5067102;28;20025;-76
2022/09/07 09:17:42;;;;;;;6.53;5.43;;;23.40;80.30;;;;;;5071412;28;20027;-75
2022/09/07 09:20:13;;;;;;;12.30;10.02;;;23.50;80.40;;;;;;5065593;28;20032;-75
2022/09/07 09:22:39;;;;;;;13.02;11.05;;;23.60;80.20;;;;;;5055637;28;20364;-76
2022/09/07 09:25:20;;;;;;;8.68;7.78;;;23.80;80.10;;;;;;5066706;28;20037;-76
2022/09/07 09:27:49;;;;;;;12.75;10.52;;;23.90;79.50;;;;;;5056338;28;20135;-75
2022/09/07 09:30:20;;;;;;;12.52;10.27;;;24.10;79.30;;;;;;5062061;28;20392;-76
2022/09/07 09:32:49;;;;;;;18.73;13.27;;;24.10;79.70;;;;;;5072841;28;20494;-76
2022/09/07 09:35:33;;;;;;;9.05;8.05;;;24.10;78.50;;;;;;5066729;28;20029;-77
2022/09/07 09:38:02;;;;;;;12.40;10.77;;;24.20;78.50;;;;;;5056945;28;20028;-77
2022/09/07 09:40:35;;;;;;;12.85;8.95;;;24.30;77.80;;;;;;5057276;28;20052;-78
2022/09/07 09:43:15;;;;;;;11.48;9.00;;;24.30;77.40;;;;;;5057207;28;20119;-77
2022/09/07 09:45:44;;;;;;;14.27;10.15;;;24.50;77.00;;;;;;5065132;28;20119;-77
2022/09/07 09:48:16;;;;;;;9.43;8.38;;;24.60;76.50;;;;;;5072431;28;20032;-77
2022/09/07 09:50:47;;;;;;;9.98;8.70;;;24.70;76.30;;;;;;5064298;28;20025;-76
2022/09/07 09:53:23;;;;;;;11.75;10.48;;;24.80;75.90;;;;;;5056848;28;20036;-75
2022/09/07 09:55:51;;;;;;;9.93;7.85;;;25.00;76.30;;;;;;5058248;28;20043;-76
2022/09/07 09:58:30;;;;;;;7.72;6.60;;;25.00;75.30;;;;;;5058715;28;20025;-77
2022/09/07 10:01:00;;;;;;;9.40;8.40;;;25.10;75.00;;;;;;5063609;28;20021;-75
2022/09/07 10:03:27;;;;;;;10.38;8.50;;;25.30;74.70;;;;;;5056286;28;20571;-76
2022/09/07 10:05:54;;;;;;;8.23;7.47;;;25.40;74.10;;;;;;5058767;28;20032;-75
2022/09/07 10:08:22;;;;;;;10.82;9.65;;;25.50;73.80;;;;;;5061944;28;20025;-78
2022/09/07 10:10:55;;;;;;;10.48;8.35;;;25.50;73.80;;;;;;5061665;28;20064;-76
2022/09/07 10:13:36;;;;;;;11.18;10.07;;;25.50;73.30;;;;;;5059427;28;20043;-78
2022/09/07 10:16:05;;;;;;;11.45;9.93;;;25.50;72.90;;;;;;5056775;28;20024;-78
2022/09/07 10:18:37;;;;;;;12.10;10.25;;;25.50;73.70;;;;;;5064816;28;20028;-78
2022/09/07 10:21:12;;;;;;;10.65;9.55;;;25.40;72.90;;;;;;5055898;28;20025;-76
2022/09/07 10:23:38;;;;;;;12.88;11.18;;;25.30;73.70;;;;;;5055970;28;20052;-77
2022/09/07 10:26:26;;;;;;;10.52;9.07;;;25.30;73.80;;;;;;5058834;28;20051;-78
2022/09/07 10:29:10;;;;;;;11.30;10.05;;;25.40;74.00;;;;;;5071760;28;20119;-77
2022/09/07 10:31:55;;;;;;;11.15;9.95;;;25.40;74.30;;;;;;5064963;28;20044;-77
2022/09/07 10:34:32;;;;;;;8.30;7.50;;;25.50;73.70;;;;;;5054700;28;20565;-77
2022/09/07 10:37:07;;;;;;;10.77;9.50;;;25.50;73.00;;;;;;5065299;28;20035;-77
2022/09/07 10:39:48;;;;;;;9.43;8.43;;;25.50;72.70;;;;;;5072588;28;20086;-77
2022/09/07 10:42:27;;;;;;;9.25;6.75;;;25.50;73.50;;;;;;5061851;28;20035;-77
2022/09/07 10:45:22;;;;;;;11.82;8.32;;;25.50;73.80;;;;;;5054305;28;20120;-77
2022/09/07 10:48:05;;;;;;;8.25;6.90;;;25.50;72.10;;;;;;5058468;28;20024;-77
2022/09/07 10:50:46;;;;;;;7.55;6.78;;;25.40;71.90;;;;;;5055646;28;20067;-77
2022/09/07 10:53:41;;;;;;;8.57;6.10;;;25.40;71.70;;;;;;5056763;28;20029;-78
2022/09/07 10:56:18;;;;;;;8.15;4.78;;;25.50;71.10;;;;;;5056111;28;20037;-77
2022/09/07 10:59:34;;;;;;;8.25;6.32;;;25.40;71.10;;;;;;5071023;28;20029;-77
2022/09/07 11:02:16;;;;;;;6.18;4.00;;;25.50;70.70;;;;;;5004236;28;20093;-78
2022/09/07 11:04:46;;;;;;;4.95;3.67;;;25.60;70.70;;;;;;4986424;28;20510;-78
2022/09/07 11:07:18;;;;;;;6.72;3.85;;;25.90;70.70;;;;;;5042496;28;20099;-75
2022/09/07 11:10:15;;;;;;;6.47;3.85;;;26.00;70.60;;;;;;5057337;28;20040;-74
2022/09/07 11:12:43;;;;;;;8.55;3.63;;;26.00;69.30;;;;;;5041613;28;20102;-76
2022/09/07 11:15:11;;;;;;;5.28;4.03;;;26.00;69.20;;;;;;5059092;28;20025;-76
2022/09/07 11:17:54;;;;;;;8.82;5.75;;;25.70;69.40;;;;;;5060395;28;20426;-76
2022/09/07 11:20:34;;;;;;;8.93;4.63;;;25.70;70.10;;;;;;5057522;28;20481;-76
2022/09/07 11:23:05;;;;;;;6.45;4.93;;;25.70;70.10;;;;;;5060308;28;20463;-79
2022/09/07 11:26:04;;;;;;;5.28;4.03;;;25.70;69.20;;;;;;5056391;28;20037;-81
2022/09/07 11:29:07;;;;;;;4.47;2.70;;;25.60;69.70;;;;;;5038482;28;20125;-77
2022/09/07 11:31:54;;;;;;;4.07;2.70;;;25.70;69.20;;;;;;5059594;28;20043;-81
2022/09/07 11:34:30;;;;;;;3.63;2.38;;;25.80;69.00;;;;;;5050766;28;20071;-90
2022/09/07 11:37:06;;;;;;;4.75;2.65;;;26.00;69.20;;;;;;5060768;28;20021;-81
2022/09/07 11:39:42;;;;;;;5.97;2.78;;;26.30;68.80;;;;;;5059114;28;20036;-80
2022/09/07 11:42:16;;;;;;;8.18;3.42;;;26.50;67.90;;;;;;5060802;28;20085;-80
2022/09/07 11:45:26;;;;;;;5.47;2.25;;;26.70;67.60;;;;;;5053134;28;20036;-80
2022/09/07 11:48:09;;;;;;;4.63;3.60;;;26.90;66.80;;;;;;5029554;28;20156;-81
2022/09/07 11:50:42;;;;;;;45.42;3.85;;;27.00;66.60;;;;;;5057590;28;20037;-80
2022/09/07 11:53:13;;;;;;;;;;;26.90;65.20;;;;;;5055458;28;20041;-78
2022/09/07 11:55:42;;;;;;;15.93;2.00;;;26.90;65.30;;;;;;5054466;28;19995;-79
2022/09/07 11:58:30;;;;;;;12.48;2.03;;;27.00;65.80;;;;;;5067923;28;20028;-81
2022/09/07 12:01:27;;;;;;;6.32;1.92;;;27.20;65.10;;;;;;5060347;28;20024;-75
2022/09/07 12:04:05;;;;;;;5.18;2.72;;;27.10;64.60;;;;;;5053481;28;20021;-75
2022/09/07 12:06:52;;;;;;;5.05;3.13;;;26.80;64.30;;;;;;5053122;28;20089;-75
2022/09/07 12:09:35;;;;;;;4.60;3.00;;;26.50;65.30;;;;;;5053219;28;20089;-75
2022/09/07 12:12:26;;;;;;;3.80;2.72;;;26.30;66.10;;;;;;5053080;28;20043;-76
2022/09/07 12:15:31;;;;;;;5.03;1.90;;;26.10;66.70;;;;;;5053278;28;20021;-75
2022/09/07 12:18:33;;;;;;;3.35;1.80;;;26.00;67.20;;;;;;5053100;28;20032;-75
2022/09/07 12:20:59;;;;;;;5.63;2.47;;;25.90;66.90;;;;;;5032490;28;20097;-75
2022/09/07 12:23:29;;;;;;;3.35;1.70;;;25.90;66.60;;;;;;5032794;28;20519;-75
2022/09/07 12:26:35;;;;;;;5.22;2.40;;;26.10;66.90;;;;;;5032665;28;20033;-75
2022/09/07 12:29:01;;;;;;;6.00;1.90;;;26.30;65.90;;;;;;5028590;28;20142;-76
2022/09/07 12:31:44;;;;;;;4.70;1.75;;;26.30;64.50;;;;;;5032365;28;20493;-76
2022/09/07 12:34:28;;;;;;;3.08;1.40;;;26.30;65.00;;;;;;5032829;28;20037;-76
2022/09/07 12:36:54;;;;;;;4.45;1.23;;;26.20;65.00;;;;;;5032708;28;20021;-76
2022/09/07 12:39:24;;;;;;;4.13;1.20;;;26.10;64.90;;;;;;5032752;28;20033;-75
2022/09/07 12:41:53;;;;;;;4.15;1.60;;;26.20;64.10;;;;;;5033186;28;20397;-75
2022/09/07 12:44:22;;;;;;;3.90;1.00;;;26.10;64.20;;;;;;5033071;28;20017;-75
2022/09/07 12:46:51;;;;;;;3.45;0.95;;;26.00;63.80;;;;;;5032831;28;20028;-73
2022/09/07 12:49:19;;;;;;;3.38;0.90;;;26.10;64.20;;;;;;5032726;28;20030;-75
2022/09/07 12:51:59;;;;;;;5.70;1.27;;;26.30;64.80;;;;;;5036332;28;20116;-76
2022/09/07 12:54:54;;;;;;;4.50;1.10;;;26.60;63.90;;;;;;5035527;28;20481;-76
2022/09/07 12:57:41;;;;;;;4.55;0.93;;;26.80;63.40;;;;;;5036259;28;20386;-75
2022/09/07 13:00:23;;;;;;;4.50;0.98;;;26.90;62.50;;;;;;5035282;28;20025;-75
2022/09/07 13:03:13;;;;;;;5.35;0.95;;;27.00;61.80;;;;;;5047040;28;20104;-74
2022/09/07 13:05:51;;;;;;;4.15;0.70;;;27.10;61.90;;;;;;5056281;28;20039;-76
2022/09/07 13:08:22;;;;;;;2.45;0.55;;;27.30;61.20;;;;;;5056495;28;20029;-75
2022/09/07 13:10:48;;;;;;;4.50;0.90;;;27.30;60.60;;;;;;5056464;28;20103;-75
2022/09/07 13:13:24;;;;;;;5.20;0.70;;;27.40;59.60;;;;;;5056650;28;20488;-75